Time;durP1;ratioP1;P1;durP2;ratioP2;P2;SDS_P1;SDS_P2;PMS_P1;PMS_P2;Temp;Humidity;BMP_temperature;BMP_pressure;BME280_temperature;BME280_humidity;BME280_pressure;Samples;Min_cycle;Max_cycle;Signal;HPM_P1;HPM_P2
2023/01/28 00:00:15;;;;;;;38.72;14.80;;;;;;;;;;5024482;28;20061;-81
2023/01/28 00:02:42;;;;;;;37.40;14.80;;;;;;;;;;5044850;28;20132;-81
2023/01/28 00:05:09;;;;;;;39.17;15.32;;;;;;;;;;5048466;28;20059;-81
2023/01/28 00:07:36;;;;;;;38.80;14.70;;;;;;;;;;5046485;28;20510;-81
2023/01/28 00:10:02;;;;;;;31.90;13.75;;;;;;;;;;5035724;28;20053;-81
2023/01/28 00:12:30;;;;;;;34.67;14.10;;;;;;;;;;5038624;28;20056;-83
2023/01/28 00:14:57;;;;;;;32.08;13.23;;;;;;;;;;5007356;28;20161;-83
2023/01/28 00:17:23;;;;;;;33.30;13.60;;;;;;;;;;5020064;28;20049;-82
2023/01/28 00:19:50;;;;;;;31.08;12.75;;;;;;;;;;5015865;28;20053;-81
2023/01/28 00:22:16;;;;;;;25.92;10.90;;;;;;;;;;5015302;28;20058;-81
2023/01/28 00:24:43;;;;;;;21.20;9.70;;;;;;;;;;5016041;28;20041;-81
2023/01/28 00:27:10;;;;;;;22.48;9.90;;;;;;;;;;5015494;28;20144;-80
2023/01/28 00:29:36;;;;;;;20.45;10.05;;;;;;;;;;5014291;28;20141;-82
2023/01/28 00:32:03;;;;;;;20.70;9.32;;;;;;;;;;5014541;28;20057;-81
2023/01/28 00:34:30;;;;;;;22.85;10.10;;;;;;;;;;4995710;28;20484;-82
2023/01/28 00:36:56;;;;;;;20.52;10.20;;;;;;;;;;5013286;28;20053;-82
2023/01/28 00:39:26;;;;;;;22.70;11.55;;;;;;;;;;5013469;28;20185;-80
2023/01/28 00:41:53;;;;;;;22.80;10.55;;;;;;;;;;4996308;28;20052;-81
2023/01/28 00:44:19;;;;;;;25.77;11.77;;;;;;;;;;5011995;28;20056;-81
2023/01/28 00:46:46;;;;;;;24.83;11.55;;;;;;;;;;5013035;28;20060;-81
2023/01/28 00:49:12;;;;;;;23.80;11.95;;;;;;;;;;5012083;28;20275;-81
2023/01/28 00:51:39;;;;;;;24.50;11.13;;;;;;;;;;5023642;28;20045;-83
2023/01/28 00:54:05;;;;;;;23.25;10.27;;;;;;;;;;5032538;28;20056;-81
2023/01/28 00:56:32;;;;;;;22.73;10.40;;;;;;;;;;5032998;28;20136;-80
2023/01/28 00:58:58;;;;;;;22.27;9.68;;;;;;;;;;5032581;28;20065;-81
2023/01/28 01:01:26;;;;;;;22.13;9.70;;;;;;;;;;5021337;28;20046;-83
2023/01/28 01:04:01;;;;;;;22.17;10.77;;;;;;;;;;5013358;28;20045;-82
2023/01/28 01:06:29;;;;;;;23.77;11.30;;;;;;;;;;5012683;28;20064;-80
2023/01/28 01:08:56;;;;;;;21.38;10.18;;;;;;;;;;5013940;28;20129;-82
2023/01/28 01:11:23;;;;;;;18.92;10.02;;;;;;;;;;5030567;28;20100;-82
2023/01/28 01:13:54;;;;;;;24.67;10.43;;;;;;;;;;5009395;28;20084;-84
2023/01/28 01:16:21;;;;;;;20.23;9.43;;;;;;;;;;5008851;28;20046;-83
2023/01/28 01:18:47;;;;;;;24.63;10.35;;;;;;;;;;5000105;28;20050;-82
2023/01/28 01:21:16;;;;;;;25.35;10.38;;;;;;;;;;4975430;28;20499;-83
2023/01/28 01:23:43;;;;;;;24.35;10.70;;;;;;;;;;4994132;28;20108;-84
2023/01/28 01:26:09;;;;;;;24.13;10.15;;;;;;;;;;4994725;28;20140;-81
2023/01/28 01:28:36;;;;;;;27.95;11.60;;;;;;;;;;4994301;28;20069;-83
2023/01/28 01:31:04;;;;;;;27.25;12.50;;;;;;;;;;4999435;28;20060;-80
2023/01/28 01:33:31;;;;;;;30.60;13.32;;;;;;;;;;4998024;28;20050;-81
2023/01/28 01:35:58;;;;;;;34.60;13.40;;;;;;;;;;4996765;28;20475;-83
2023/01/28 01:38:25;;;;;;;33.53;13.30;;;;;;;;;;4995997;28;20046;-82
2023/01/28 01:40:51;;;;;;;25.42;12.10;;;;;;;;;;4997028;28;20050;-81
2023/01/28 01:43:18;;;;;;;30.95;12.35;;;;;;;;;;4996729;28;20513;-80
2023/01/28 01:45:48;;;;;;;29.00;11.52;;;;;;;;;;4996874;28;20050;-80
2023/01/28 01:48:17;;;;;;;31.08;12.00;;;;;;;;;;4994961;28;20105;-83
2023/01/28 01:51:13;;;;;;;26.15;11.52;;;;;;;;;;5023018;28;20050;-82
2023/01/28 01:53:41;;;;;;;20.63;9.15;;;;;;;;;;4983021;28;20106;-83
2023/01/28 01:56:09;;;;;;;31.15;12.60;;;;;;;;;;5013933;28;20367;-83
2023/01/28 01:58:38;;;;;;;29.88;12.52;;;;;;;;;;4999188;28;20050;-81
2023/01/28 02:01:05;;;;;;;23.23;11.02;;;;;;;;;;5011945;28;20141;-81
2023/01/28 02:03:50;;;;;;;28.08;11.13;;;;;;;;;;4996760;28;20077;-84
2023/01/28 02:06:16;;;;;;;27.77;11.05;;;;;;;;;;4996104;28;20050;-81
2023/01/28 02:08:44;;;;;;;28.42;11.55;;;;;;;;;;4996014;28;20412;-81
2023/01/28 02:11:11;;;;;;;26.60;11.02;;;;;;;;;;4997019;28;20061;-81
2023/01/28 02:13:42;;;;;;;23.48;11.10;;;;;;;;;;5014074;28;20076;-81
2023/01/28 02:16:09;;;;;;;28.63;11.93;;;;;;;;;;5015972;28;20510;-80
2023/01/28 02:18:36;;;;;;;26.60;10.85;;;;;;;;;;5013826;28;20054;-82
2023/01/28 02:21:05;;;;;;;27.13;11.05;;;;;;;;;;5015359;28;20064;-81
2023/01/28 02:24:07;;;;;;;26.38;12.02;;;;;;;;;;5015383;28;20125;-83
2023/01/28 02:26:39;;;;;;;27.42;12.15;;;;;;;;;;4901084;29;20052;-82
2023/01/28 02:29:18;;;;;;;30.77;11.85;;;;;;;;;;4998289;28;20049;-81
2023/01/28 02:31:47;;;;;;;28.65;12.35;;;;;;;;;;5014568;28;20144;-82
2023/01/28 02:34:14;;;;;;;32.13;14.20;;;;;;;;;;5012326;28;20049;-81
2023/01/28 02:36:42;;;;;;;38.45;15.13;;;;;;;;;;5014635;28;20060;-82
2023/01/28 02:39:15;;;;;;;37.53;15.65;;;;;;;;;;4995952;28;20145;-80
2023/01/28 02:41:45;;;;;;;36.53;15.15;;;;;;;;;;5014505;28;20050;-81
2023/01/28 02:44:11;;;;;;;36.17;14.63;;;;;;;;;;4997186;28;20374;-82
2023/01/28 02:49:29;;;;;;;34.40;14.23;;;;;;;;;;5010054;28;20047;-83
2023/01/28 02:51:58;;;;;;;29.40;13.63;;;;;;;;;;5027284;28;20045;-81
2023/01/28 02:54:37;;;;;;;31.80;14.05;;;;;;;;;;5034445;28;20053;-81
2023/01/28 02:57:12;;;;;;;33.75;14.07;;;;;;;;;;5035150;28;20052;-80
2023/01/28 02:59:43;;;;;;;35.85;14.85;;;;;;;;;;5016413;28;20045;-82
2023/01/28 03:02:10;;;;;;;32.42;14.88;;;;;;;;;;5034304;28;20052;-81
2023/01/28 03:04:55;;;;;;;36.25;14.93;;;;;;;;;;5033365;28;20054;-81
2023/01/28 03:07:22;;;;;;;33.23;13.60;;;;;;;;;;5034309;28;20141;-82
2023/01/28 03:09:50;;;;;;;28.80;13.05;;;;;;;;;;5033903;28;20674;-82
2023/01/28 03:38:19;;;;;;;29.13;13.10;;;;;;;;;;5014888;28;20141;-81
2023/01/28 03:40:49;;;;;;;28.17;13.30;;;;;;;;;;5026450;28;20109;-80
2023/01/28 03:43:15;;;;;;;31.52;14.15;;;;;;;;;;5017494;28;20068;-80
2023/01/28 03:45:42;;;;;;;30.42;13.45;;;;;;;;;;5014077;28;20081;-80
2023/01/28 03:48:08;;;;;;;25.27;11.65;;;;;;;;;;5012764;28;20096;-80
2023/01/28 03:50:35;;;;;;;25.52;11.77;;;;;;;;;;5022010;28;20408;-81
2023/01/28 03:53:11;;;;;;;23.83;11.15;;;;;;;;;;5013525;28;20449;-81
2023/01/28 03:55:41;;;;;;;28.27;11.05;;;;;;;;;;5015730;28;20410;-81
2023/01/28 03:58:08;;;;;;;21.75;10.43;;;;;;;;;;4996570;28;20045;-81
2023/01/28 04:00:40;;;;;;;22.45;10.57;;;;;;;;;;5016038;28;20045;-82
2023/01/28 04:03:14;;;;;;;21.08;10.20;;;;;;;;;;5015027;28;20053;-82
2023/01/28 04:05:45;;;;;;;21.98;10.30;;;;;;;;;;5014016;28;20128;-81
2023/01/28 04:08:11;;;;;;;25.13;10.45;;;;;;;;;;5008468;28;20278;-80
2023/01/28 04:10:39;;;;;;;21.27;10.57;;;;;;;;;;5028813;28;20101;-80
2023/01/28 04:13:06;;;;;;;26.08;11.38;;;;;;;;;;5016182;28;20054;-81
2023/01/28 04:15:32;;;;;;;21.90;9.93;;;;;;;;;;4994883;28;20049;-82
2023/01/28 04:18:00;;;;;;;19.23;9.63;;;;;;;;;;5012911;28;20081;-80
2023/01/28 04:20:26;;;;;;;17.13;9.15;;;;;;;;;;5013531;28;20046;-81
2023/01/28 04:22:53;;;;;;;21.00;7.85;;;;;;;;;;5012904;28;20088;-82
2023/01/28 04:25:19;;;;;;;16.20;7.57;;;;;;;;;;5014351;28;20048;-81
2023/01/28 04:27:46;;;;;;;19.92;8.05;;;;;;;;;;5013884;28;20199;-81
2023/01/28 04:30:12;;;;;;;12.43;6.28;;;;;;;;;;5015885;28;20046;-81
2023/01/28 04:32:39;;;;;;;19.63;6.40;;;;;;;;;;5016924;28;20140;-82
2023/01/28 04:35:05;;;;;;;11.05;6.15;;;;;;;;;;5013268;28;20589;-81
2023/01/28 04:37:32;;;;;;;12.48;6.30;;;;;;;;;;5010855;28;20050;-82
2023/01/28 04:39:58;;;;;;;16.02;5.30;;;;;;;;;;4997250;28;20046;-80
2023/01/28 04:42:25;;;;;;;11.95;5.45;;;;;;;;;;5015874;28;20055;-80
2023/01/28 04:44:51;;;;;;;11.45;6.10;;;;;;;;;;5015053;28;20096;-83
2023/01/28 04:47:18;;;;;;;10.90;5.00;;;;;;;;;;4995259;28;20061;-82
2023/01/28 04:49:45;;;;;;;10.20;5.30;;;;;;;;;;5018013;28;20220;-82
2023/01/28 04:52:11;;;;;;;14.00;4.82;;;;;;;;;;5025380;28;20076;-82
2023/01/28 04:54:38;;;;;;;17.20;5.10;;;;;;;;;;5032963;28;20053;-81
2023/01/28 04:57:04;;;;;;;10.93;5.20;;;;;;;;;;5014639;28;20084;-80
2023/01/28 04:59:30;;;;;;;11.68;4.43;;;;;;;;;;5014274;28;20061;-81
2023/01/28 05:01:57;;;;;;;11.10;4.72;;;;;;;;;;5032919;28;20595;-81
2023/01/28 05:04:23;;;;;;;13.38;4.80;;;;;;;;;;5030437;28;20088;-82
2023/01/28 05:06:50;;;;;;;15.32;4.07;;;;;;;;;;5032926;28;20051;-81
2023/01/28 05:09:16;;;;;;;8.95;3.60;;;;;;;;;;5032475;28;20045;-81
2023/01/28 05:11:43;;;;;;;9.70;3.33;;;;;;;;;;5033104;28;20117;-80
2023/01/28 05:14:09;;;;;;;13.07;3.83;;;;;;;;;;5022216;28;20050;-80
2023/01/28 05:16:36;;;;;;;10.70;3.80;;;;;;;;;;5013558;28;20120;-81
2023/01/28 05:19:02;;;;;;;7.60;3.75;;;;;;;;;;4992218;28;20467;-82
2023/01/28 05:21:29;;;;;;;9.32;3.65;;;;;;;;;;5011024;28;20053;-81
2023/01/28 05:23:55;;;;;;;8.43;3.28;;;;;;;;;;5012213;28;20054;-80
2023/01/28 05:26:21;;;;;;;9.05;3.58;;;;;;;;;;5013132;28;20050;-82
2023/01/28 05:28:48;;;;;;;10.98;3.78;;;;;;;;;;5012254;28;20518;-80
2023/01/28 05:31:16;;;;;;;7.05;3.10;;;;;;;;;;5013019;28;20072;-80
2023/01/28 05:33:42;;;;;;;9.77;3.20;;;;;;;;;;4993271;28;20057;-81
2023/01/28 05:36:08;;;;;;;7.22;2.60;;;;;;;;;;4994515;28;20053;-80
2023/01/28 05:38:36;;;;;;;7.38;2.92;;;;;;;;;;5011574;28;20136;-80
2023/01/28 05:41:03;;;;;;;8.60;2.72;;;;;;;;;;5013814;28;20536;-80
2023/01/28 05:43:29;;;;;;;6.45;2.78;;;;;;;;;;4996202;28;20053;-81
2023/01/28 05:45:55;;;;;;;10.98;2.60;;;;;;;;;;4995830;28;20065;-82
2023/01/28 05:48:22;;;;;;;6.95;2.25;;;;;;;;;;5011284;28;20062;-82
2023/01/28 05:50:48;;;;;;;10.57;2.80;;;;;;;;;;5019979;28;20049;-82
2023/01/28 05:53:15;;;;;;;6.32;2.88;;;;;;;;;;5013338;28;20136;-82
2023/01/28 05:55:41;;;;;;;7.65;2.67;;;;;;;;;;5034089;28;20061;-79
2023/01/28 05:58:08;;;;;;;9.20;2.65;;;;;;;;;;5033548;28;20152;-82
2023/01/28 06:00:34;;;;;;;6.50;2.30;;;;;;;;;;5035610;28;20049;-82
2023/01/28 06:03:00;;;;;;;10.10;3.00;;;;;;;;;;5036828;28;20049;-81
2023/01/28 06:05:27;;;;;;;8.85;3.33;;;;;;;;;;5038066;28;20117;-84
2023/01/28 06:07:53;;;;;;;11.05;2.83;;;;;;;;;;5045365;28;20045;-83
2023/01/28 06:10:20;;;;;;;7.85;2.63;;;;;;;;;;5052863;28;20049;-84
2023/01/28 06:12:46;;;;;;;7.75;2.78;;;;;;;;;;5040072;28;20050;-81
2023/01/28 06:15:12;;;;;;;9.45;2.95;;;;;;;;;;5016004;28;20061;-83
2023/01/28 06:17:39;;;;;;;5.78;2.88;;;;;;;;;;5017339;28;20054;-83
2023/01/28 06:20:07;;;;;;;6.97;2.75;;;;;;;;;;5019117;28;20117;-82
2023/01/28 06:22:34;;;;;;;8.80;2.97;;;;;;;;;;5018027;28;20057;-79
2023/01/28 06:25:00;;;;;;;7.43;2.83;;;;;;;;;;5017271;28;20073;-79
2023/01/28 06:27:26;;;;;;;6.68;2.97;;;;;;;;;;5018397;28;20046;-81
2023/01/28 06:29:53;;;;;;;7.35;2.50;;;;;;;;;;5017961;28;20058;-82
2023/01/28 06:32:20;;;;;;;11.60;2.75;;;;;;;;;;5018329;28;20104;-81
2023/01/28 06:34:47;;;;;;;7.90;2.83;;;;;;;;;;5016544;28;20134;-81
2023/01/28 06:37:14;;;;;;;5.82;2.55;;;;;;;;;;5015808;28;20046;-82
2023/01/28 06:39:40;;;;;;;8.60;3.08;;;;;;;;;;5014715;28;20050;-82
2023/01/28 06:42:06;;;;;;;6.18;2.75;;;;;;;;;;5014839;28;20050;-81
2023/01/28 06:44:33;;;;;;;5.55;3.08;;;;;;;;;;5014271;28;20056;-82
2023/01/28 06:46:59;;;;;;;9.18;3.53;;;;;;;;;;5008543;28;20077;-81
2023/01/28 06:49:25;;;;;;;7.53;3.95;;;;;;;;;;4993628;28;20132;-81
2023/01/28 06:51:52;;;;;;;9.45;3.90;;;;;;;;;;5021426;28;20049;-80
2023/01/28 06:54:18;;;;;;;9.25;3.78;;;;;;;;;;5013006;28;20100;-82
2023/01/28 06:56:45;;;;;;;11.00;4.10;;;;;;;;;;5010642;28;20066;-81
2023/01/28 06:59:11;;;;;;;11.77;4.32;;;;;;;;;;5010053;28;20049;-81
2023/01/28 07:01:37;;;;;;;10.55;4.53;;;;;;;;;;5011624;28;20433;-82
2023/01/28 07:04:04;;;;;;;13.88;5.05;;;;;;;;;;5010944;28;20418;-82
2023/01/28 07:06:30;;;;;;;11.40;4.93;;;;;;;;;;5000266;28;20218;-82
2023/01/28 07:08:57;;;;;;;10.35;4.95;;;;;;;;;;4993783;28;20049;-80
2023/01/28 07:11:23;;;;;;;14.02;5.25;;;;;;;;;;5011355;28;20476;-84
2023/01/28 07:13:49;;;;;;;9.98;4.68;;;;;;;;;;5003880;28;20046;-82
2023/01/28 07:16:16;;;;;;;10.30;4.72;;;;;;;;;;4993354;28;20136;-81
2023/01/28 07:18:42;;;;;;;9.70;4.65;;;;;;;;;;4991928;28;20054;-82
2023/01/28 07:21:09;;;;;;;10.13;4.63;;;;;;;;;;5009713;28;20579;-82
2023/01/28 07:23:35;;;;;;;12.35;5.25;;;;;;;;;;5011206;28;20046;-81
2023/01/28 07:26:03;;;;;;;13.05;5.35;;;;;;;;;;5010687;28;20079;-81
2023/01/28 07:28:30;;;;;;;10.40;4.53;;;;;;;;;;5009341;28;20050;-81
2023/01/28 07:30:56;;;;;;;9.13;4.80;;;;;;;;;;5010752;28;20506;-82
2023/01/28 07:33:24;;;;;;;9.48;4.15;;;;;;;;;;4994218;28;20064;-82
2023/01/28 07:35:50;;;;;;;10.85;4.28;;;;;;;;;;5009914;28;20068;-81
2023/01/28 07:38:17;;;;;;;10.80;3.83;;;;;;;;;;5010675;28;20052;-82
2023/01/28 07:40:44;;;;;;;14.77;4.25;;;;;;;;;;5011516;28;20125;-81
2023/01/28 07:43:10;;;;;;;11.93;4.13;;;;;;;;;;5011888;28;20054;-82
2023/01/28 07:45:37;;;;;;;9.02;4.43;;;;;;;;;;5010153;28;20045;-82
2023/01/28 07:48:05;;;;;;;8.57;3.80;;;;;;;;;;5009526;28;20050;-82
2023/01/28 07:50:32;;;;;;;11.00;4.20;;;;;;;;;;5009132;28;20052;-82
2023/01/28 07:53:01;;;;;;;11.80;4.43;;;;;;;;;;5011179;28;20434;-81
2023/01/28 07:55:28;;;;;;;9.18;4.28;;;;;;;;;;5011316;28;20054;-82
2023/01/28 07:57:57;;;;;;;12.55;4.13;;;;;;;;;;5007962;28;20056;-82
2023/01/28 08:00:25;;;;;;;6.72;3.65;;;;;;;;;;5007777;28;20056;-82
2023/01/28 08:02:55;;;;;;;6.38;3.63;;;;;;;;;;5006681;28;20072;-82
2023/01/28 08:05:22;;;;;;;10.38;4.13;;;;;;;;;;5010815;28;20129;-80
2023/01/28 08:07:49;;;;;;;11.20;3.70;;;;;;;;;;5003252;28;20536;-78
2023/01/28 08:10:16;;;;;;;8.68;4.07;;;;;;;;;;5004882;28;20133;-79
2023/01/28 08:12:53;;;;;;;5.60;3.33;;;;;;;;;;5004312;28;20526;-78
2023/01/28 08:15:19;;;;;;;8.93;4.10;;;;;;;;;;4985945;28;20485;-78
2023/01/28 08:17:45;;;;;;;7.97;3.50;;;;;;;;;;4984254;28;20222;-78
2023/01/28 08:20:12;;;;;;;8.52;3.20;;;;;;;;;;5016389;28;20057;-83
2023/01/28 08:22:40;;;;;;;6.35;2.70;;;;;;;;;;5016865;28;20054;-82
2023/01/28 08:25:07;;;;;;;9.32;3.00;;;;;;;;;;5017343;28;20053;-81
2023/01/28 08:27:33;;;;;;;8.50;3.10;;;;;;;;;;5016772;28;20050;-81
2023/01/28 08:30:00;;;;;;;6.72;3.03;;;;;;;;;;4996103;28;20072;-82
2023/01/28 08:32:27;;;;;;;7.88;3.40;;;;;;;;;;5018642;28;20084;-80
2023/01/28 08:34:54;;;;;;;5.53;2.80;;;;;;;;;;5025478;28;20106;-83
2023/01/28 08:37:20;;;;;;;12.30;3.30;;;;;;;;;;5020893;28;20069;-82
2023/01/28 08:39:46;;;;;;;5.70;3.22;;;;;;;;;;5021937;28;20098;-82
2023/01/28 08:42:13;;;;;;;8.88;3.40;;;;;;;;;;5020951;28;20046;-83
2023/01/28 08:44:39;;;;;;;6.30;3.13;;;;;;;;;;5021311;28;20068;-81
2023/01/28 08:47:06;;;;;;;6.95;3.20;;;;;;;;;;5019354;28;20057;-82
2023/01/28 08:49:32;;;;;;;10.18;3.55;;;;;;;;;;5021368;28;20051;-83
2023/01/28 08:51:58;;;;;;;6.82;2.88;;;;;;;;;;5027134;28;20061;-82
2023/01/28 08:54:25;;;;;;;8.27;3.38;;;;;;;;;;5036255;28;20144;-83
2023/01/28 08:56:51;;;;;;;7.38;3.25;;;;;;;;;;5029045;28;20149;-82
2023/01/28 08:59:18;;;;;;;7.55;3.50;;;;;;;;;;5016069;28;20084;-81
2023/01/28 09:01:44;;;;;;;8.35;3.63;;;;;;;;;;5015646;28;20065;-83
2023/01/28 09:04:11;;;;;;;8.90;3.33;;;;;;;;;;5014961;28;20136;-82
2023/01/28 09:06:37;;;;;;;6.43;2.80;;;;;;;;;;5007003;28;20046;-83
2023/01/28 09:09:03;;;;;;;5.53;3.05;;;;;;;;;;5027944;28;20046;-82
2023/01/28 09:11:30;;;;;;;5.57;3.30;;;;;;;;;;5026795;28;20058;-83
2023/01/28 09:13:56;;;;;;;6.05;3.35;;;;;;;;;;5008192;28;20064;-79
2023/01/28 09:16:23;;;;;;;12.60;5.05;;;;;;;;;;5001972;28;20060;-82
2023/01/28 09:18:50;;;;;;;6.82;3.35;;;;;;;;;;5016495;28;20073;-85
2023/01/28 09:21:16;;;;;;;7.03;3.85;;;;;;;;;;5015157;28;20050;-84
2023/01/28 09:23:43;;;;;;;9.27;3.63;;;;;;;;;;5018271;28;20054;-82
2023/01/28 09:26:10;;;;;;;9.38;3.42;;;;;;;;;;5019177;28;20348;-83
2023/01/28 09:28:37;;;;;;;7.32;2.80;;;;;;;;;;5016215;28;20052;-83
2023/01/28 09:31:08;;;;;;;7.43;3.20;;;;;;;;;;5016816;28;20140;-81
2023/01/28 09:33:36;;;;;;;8.25;3.40;;;;;;;;;;5014789;28;20077;-81
2023/01/28 09:36:03;;;;;;;9.80;3.60;;;;;;;;;;5013852;28;20056;-83
2023/01/28 09:38:30;;;;;;;10.02;3.90;;;;;;;;;;5015356;28;20057;-82
2023/01/28 09:40:57;;;;;;;9.07;3.80;;;;;;;;;;5017467;28;20174;-84
2023/01/28 09:43:24;;;;;;;8.35;3.63;;;;;;;;;;5015503;28;20414;-84
2023/01/28 09:45:51;;;;;;;7.43;3.47;;;;;;;;;;5015850;28;20050;-83
2023/01/28 09:48:20;;;;;;;6.60;3.70;;;;;;;;;;5017373;28;20066;-84
2023/01/28 09:50:48;;;;;;;10.77;3.50;;;;;;;;;;5020781;28;20052;-83
2023/01/28 09:53:17;;;;;;;6.68;3.20;;;;;;;;;;5014547;28;20049;-84
2023/01/28 09:55:49;;;;;;;7.70;2.80;;;;;;;;;;5017250;28;20450;-83
2023/01/28 09:58:16;;;;;;;6.93;3.28;;;;;;;;;;5014845;28;20144;-83
2023/01/28 10:01:03;;;;;;;9.63;3.45;;;;;;;;;;5015606;28;20060;-83
2023/01/28 10:03:42;;;;;;;8.90;3.33;;;;;;;;;;4999042;28;20114;-84
2023/01/28 10:06:13;;;;;;;8.80;3.28;;;;;;;;;;5016441;28;20061;-84
2023/01/28 10:08:42;;;;;;;7.60;2.72;;;;;;;;;;5017161;28;20046;-84
2023/01/28 10:11:27;;;;;;;6.95;2.70;;;;;;;;;;5018587;28;20054;-84
2023/01/28 10:14:29;;;;;;;6.60;3.00;;;;;;;;;;5019983;28;20117;-84
2023/01/28 10:17:01;;;;;;;5.30;2.55;;;;;;;;;;4982163;28;20049;-83
2023/01/28 10:19:31;;;;;;;5.18;2.70;;;;;;;;;;5019630;28;20080;-84
2023/01/28 10:22:00;;;;;;;4.32;2.38;;;;;;;;;;5021968;28;20088;-83
2023/01/28 10:24:32;;;;;;;3.63;2.15;;;;;;;;;;5023297;28;20077;-82
2023/01/28 10:26:59;;;;;;;5.70;2.08;;;;;;;;;;5027059;28;20121;-85
2023/01/28 10:29:30;;;;;;;11.27;2.20;;;;;;;;;;5010468;28;20117;-84
2023/01/28 10:31:57;;;;;;;8.50;2.25;;;;;;;;;;5027999;28;20177;-85
2023/01/28 10:34:23;;;;;;;6.65;2.70;;;;;;;;;;5028163;28;20341;-86
2023/01/28 10:36:50;;;;;;;5.70;2.45;;;;;;;;;;5029553;28;20082;-84
2023/01/28 10:39:19;;;;;;;4.00;1.63;;;;;;;;;;5029666;28;20187;-85
2023/01/28 10:41:45;;;;;;;4.90;1.63;;;;;;;;;;5015007;28;20046;-85
2023/01/28 10:44:49;;;;;;;4.70;2.47;;;;;;;;;;5032520;28;20033;-85
2023/01/28 10:47:23;;;;;;;6.53;2.15;;;;;;;;;;5027377;28;20026;-85
2023/01/28 10:49:52;;;;;;;6.53;2.10;;;;;;;;;;5037963;28;20063;-85
2023/01/28 10:52:18;;;;;;;6.25;1.95;;;;;;;;;;5011946;28;20050;-84
2023/01/28 10:54:45;;;;;;;5.85;2.13;;;;;;;;;;5024007;28;20077;-84
2023/01/28 10:57:12;;;;;;;4.85;2.20;;;;;;;;;;5025519;28;20102;-84
2023/01/28 10:59:40;;;;;;;4.22;1.90;;;;;;;;;;5033584;28;20105;-84
2023/01/28 11:02:25;;;;;;;6.95;2.08;;;;;;;;;;5033353;28;20036;-85
2023/01/28 11:05:10;;;;;;;5.75;2.00;;;;;;;;;;5018658;28;20046;-84
2023/01/28 11:07:36;;;;;;;6.38;2.30;;;;;;;;;;5001897;28;20046;-85
2023/01/28 11:10:23;;;;;;;7.95;2.38;;;;;;;;;;5019278;28;20049;-83
2023/01/28 11:12:56;;;;;;;4.20;2.10;;;;;;;;;;5011542;28;20101;-85
2023/01/28 11:15:23;;;;;;;7.63;2.60;;;;;;;;;;5013549;28;20050;-82
2023/01/28 11:17:57;;;;;;;7.68;2.53;;;;;;;;;;4998081;28;20053;-81
2023/01/28 11:20:25;;;;;;;5.10;2.55;;;;;;;;;;5009942;28;20065;-82
2023/01/28 11:22:52;;;;;;;6.82;2.97;;;;;;;;;;5009216;28;20049;-82
2023/01/28 11:25:25;;;;;;;5.95;2.60;;;;;;;;;;5010046;28;20140;-82
2023/01/28 11:27:52;;;;;;;5.80;1.98;;;;;;;;;;5011165;28;20140;-81
2023/01/28 11:30:23;;;;;;;5.38;2.13;;;;;;;;;;4994139;28;20430;-81
2023/01/28 11:33:13;;;;;;;10.32;2.40;;;;;;;;;;4993953;28;20054;-83
2023/01/28 11:35:39;;;;;;;7.53;2.67;;;;;;;;;;5014018;28;20061;-81
2023/01/28 11:38:19;;;;;;;6.82;2.40;;;;;;;;;;5012219;28;20054;-80
2023/01/28 11:40:53;;;;;;;5.88;2.38;;;;;;;;;;5012875;28;20053;-80
2023/01/28 11:43:23;;;;;;;5.80;2.15;;;;;;;;;;5013827;28;20135;-82
2023/01/28 11:45:49;;;;;;;7.10;2.58;;;;;;;;;;5014989;28;20089;-83
2023/01/28 11:48:22;;;;;;;7.07;2.53;;;;;;;;;;5012801;28;20054;-81
2023/01/28 11:51:03;;;;;;;6.05;2.25;;;;;;;;;;5019589;28;20129;-81
2023/01/28 11:53:31;;;;;;;6.43;2.35;;;;;;;;;;5022658;28;20075;-82
2023/01/28 11:56:01;;;;;;;5.63;2.20;;;;;;;;;;5020044;28;20046;-82
2023/01/28 11:58:36;;;;;;;7.57;2.67;;;;;;;;;;5018208;28;20054;-83
2023/01/28 12:01:08;;;;;;;6.68;2.25;;;;;;;;;;5012824;28;20041;-80
2023/01/28 12:03:35;;;;;;;5.75;2.75;;;;;;;;;;5011352;28;20085;-82
2023/01/28 12:06:10;;;;;;;6.80;2.13;;;;;;;;;;5019750;28;20478;-81
2023/01/28 12:09:07;;;;;;;5.22;2.45;;;;;;;;;;5011838;28;20465;-82
2023/01/28 12:12:11;;;;;;;7.13;2.83;;;;;;;;;;5012264;28;20070;-81
2023/01/28 12:14:37;;;;;;;6.00;2.70;;;;;;;;;;5008063;28;20110;-81
2023/01/28 12:17:22;;;;;;;5.03;2.20;;;;;;;;;;5006368;28;20133;-82
2023/01/28 12:20:10;;;;;;;9.77;2.55;;;;;;;;;;5007642;28;20073;-81
2023/01/28 12:22:36;;;;;;;4.45;1.90;;;;;;;;;;5005758;28;20541;-81
2023/01/28 12:25:12;;;;;;;5.47;2.47;;;;;;;;;;5002934;28;20076;-80
2023/01/28 12:27:41;;;;;;;11.57;4.10;;;;;;;;;;5002936;28;20046;-79
2023/01/28 12:30:25;;;;;;;8.82;2.50;;;;;;;;;;5004190;28;20104;-82
2023/01/28 12:32:52;;;;;;;4.43;2.58;;;;;;;;;;5001613;28;20054;-82
2023/01/28 12:35:37;;;;;;;6.32;2.55;;;;;;;;;;5002031;28;20114;-82
2023/01/28 12:38:03;;;;;;;12.70;3.83;;;;;;;;;;4983591;28;20054;-82
2023/01/28 12:40:33;;;;;;;9.38;3.72;;;;;;;;;;5003339;28;20089;-81
2023/01/28 12:43:02;;;;;;;6.75;2.90;;;;;;;;;;5003170;28;20141;-81
2023/01/28 12:45:31;;;;;;;6.35;2.13;;;;;;;;;;4987213;28;20100;-81
2023/01/28 12:48:01;;;;;;;4.65;1.67;;;;;;;;;;5001289;28;20046;-82
2023/01/28 12:50:33;;;;;;;5.05;1.70;;;;;;;;;;5011065;28;20075;-80
2023/01/28 12:53:02;;;;;;;7.18;1.80;;;;;;;;;;5021954;28;20050;-82
2023/01/28 12:55:47;;;;;;;8.00;2.78;;;;;;;;;;5022114;28;20053;-81
2023/01/28 12:58:23;;;;;;;5.63;2.13;;;;;;;;;;5021575;28;20506;-81
2023/01/28 13:00:53;;;;;;;17.15;5.88;;;;;;;;;;5019654;28;20053;-81
2023/01/28 13:03:29;;;;;;;9.68;2.80;;;;;;;;;;5017680;28;20049;-82
2023/01/28 13:05:59;;;;;;;5.30;1.92;;;;;;;;;;5014412;28;20572;-81
2023/01/28 13:08:26;;;;;;;3.97;1.80;;;;;;;;;;5014576;28;20052;-80
2023/01/28 13:10:54;;;;;;;3.33;1.77;;;;;;;;;;5019331;28;20052;-81
2023/01/28 13:13:27;;;;;;;3.25;1.70;;;;;;;;;;5021975;28;20053;-82
2023/01/28 13:15:53;;;;;;;8.95;3.15;;;;;;;;;;5022128;28;20042;-82
2023/01/28 13:18:38;;;;;;;12.52;4.78;;;;;;;;;;5022998;28;20052;-82
2023/01/28 13:21:13;;;;;;;12.35;3.08;;;;;;;;;;5025340;28;20046;-82
2023/01/28 13:23:41;;;;;;;15.67;6.30;;;;;;;;;;5032722;28;20069;-82
2023/01/28 13:26:09;;;;;;;6.63;2.80;;;;;;;;;;5025369;28;20042;-82
2023/01/28 13:28:35;;;;;;;3.63;2.10;;;;;;;;;;5025864;28;20052;-82
2023/01/28 13:31:16;;;;;;;6.38;2.88;;;;;;;;;;5028165;28;20050;-82
2023/01/28 13:33:45;;;;;;;6.63;2.70;;;;;;;;;;5024731;28;20050;-80
2023/01/28 13:36:17;;;;;;;7.00;2.47;;;;;;;;;;5025993;28;20054;-81
2023/01/28 13:38:44;;;;;;;4.80;2.25;;;;;;;;;;5024079;28;20060;-81
2023/01/28 13:41:11;;;;;;;4.68;2.08;;;;;;;;;;5028350;28;20114;-81
2023/01/28 13:43:39;;;;;;;5.43;2.75;;;;;;;;;;5029266;28;20475;-81
2023/01/28 13:46:10;;;;;;;8.77;2.75;;;;;;;;;;5029309;28;20049;-81
2023/01/28 13:48:50;;;;;;;6.15;3.10;;;;;;;;;;5028823;28;20064;-81
2023/01/28 13:51:20;;;;;;;6.82;3.05;;;;;;;;;;5036996;28;20109;-81
2023/01/28 13:54:01;;;;;;;6.32;2.83;;;;;;;;;;5045773;28;20050;-82
2023/01/28 13:56:29;;;;;;;5.97;2.60;;;;;;;;;;5044559;28;20049;-82
2023/01/28 13:59:02;;;;;;;7.70;2.60;;;;;;;;;;5044267;28;20069;-80
2023/01/28 14:01:42;;;;;;;10.90;3.05;;;;;;;;;;5041896;28;20053;-81
2023/01/28 14:04:08;;;;;;;5.70;2.72;;;;;;;;;;5029355;28;20081;-80
2023/01/28 14:06:53;;;;;;;5.68;2.58;;;;;;;;;;5025417;28;20046;-81
2023/01/28 14:09:30;;;;;;;8.10;4.07;;;;;;;;;;5026510;28;20170;-80
2023/01/28 14:12:15;;;;;;;9.13;4.60;;;;;;;;;;5025576;28;20050;-83
2023/01/28 14:15:00;;;;;;;13.73;5.70;;;;;;;;;;5024789;28;20049;-81
2023/01/28 14:17:33;;;;;;;11.05;4.50;;;;;;;;;;5024758;28;20137;-81
2023/01/28 14:20:00;;;;;;;16.45;4.88;;;;;;;;;;5023921;28;20058;-81
2023/01/28 14:22:26;;;;;;;20.58;8.40;;;;;;;;;;5023814;28;20050;-82
2023/01/28 14:25:01;;;;;;;15.55;7.03;;;;;;;;;;5024637;28;20108;-81
2023/01/28 14:27:34;;;;;;;17.30;5.00;;;;;;;;;;5024683;28;20065;-82
2023/01/28 14:30:03;;;;;;;8.10;3.60;;;;;;;;;;5024369;28;20042;-81
2023/01/28 14:32:30;;;;;;;8.30;3.75;;;;;;;;;;5023145;28;20054;-82
2023/01/28 14:34:58;;;;;;;11.63;5.18;;;;;;;;;;5023459;28;20554;-81
2023/01/28 14:37:28;;;;;;;7.15;3.67;;;;;;;;;;5023640;28;20077;-81
2023/01/28 14:39:56;;;;;;;7.00;3.65;;;;;;;;;;5023329;28;20050;-81
2023/01/28 14:42:29;;;;;;;9.57;4.30;;;;;;;;;;5022994;28;20064;-81
2023/01/28 14:45:02;;;;;;;9.95;4.03;;;;;;;;;;5005687;28;20105;-81
2023/01/28 14:47:28;;;;;;;12.95;5.60;;;;;;;;;;5025634;28;20420;-81
2023/01/28 14:49:57;;;;;;;13.95;5.28;;;;;;;;;;5028592;28;20037;-79
2023/01/28 14:52:43;;;;;;;10.77;4.63;;;;;;;;;;5028650;28;20046;-80
2023/01/28 14:55:22;;;;;;;21.33;6.72;;;;;;;;;;5003887;28;20088;-80
2023/01/28 14:57:54;;;;;;;22.48;8.20;;;;;;;;;;5020594;28;20065;-81
2023/01/28 15:00:20;;;;;;;32.25;10.63;;;;;;;;;;5019026;28;20052;-81
2023/01/28 15:02:46;;;;;;;42.75;11.98;;;;;;;;;;5022244;28;20060;-81
2023/01/28 15:05:15;;;;;;;33.08;10.02;;;;;;;;;;5021915;28;20061;-81
2023/01/28 15:07:45;;;;;;;29.85;10.75;;;;;;;;;;5023932;28;20044;-81
2023/01/28 15:10:16;;;;;;;18.85;7.22;;;;;;;;;;5026228;28;20060;-80
2023/01/28 15:12:49;;;;;;;16.90;7.53;;;;;;;;;;5036709;28;20066;-82
2023/01/28 15:15:22;;;;;;;23.30;8.73;;;;;;;;;;5021349;28;20037;-82